sensor_id;sensor_type;location;lat;lon;timestamp;temperature;humidity
51815;DHT22;37874;53.158;6.766;2022-08-01T00:00:26;26.50;54.90
51815;DHT22;37874;53.158;6.766;2022-08-01T00:02:51;26.50;54.90
51815;DHT22;37874;53.158;6.766;2022-08-01T00:05:17;26.50;55.10
51815;DHT22;37874;53.158;6.766;2022-08-01T00:07:43;26.50;54.90
51815;DHT22;37874;53.158;6.766;2022-08-01T00:10:14;26.50;54.90
51815;DHT22;37874;53.158;6.766;2022-08-01T00:12:41;26.50;54.90
51815;DHT22;37874;53.158;6.766;2022-08-01T00:15:09;26.60;54.80
51815;DHT22;37874;53.158;6.766;2022-08-01T00:17:35;26.60;54.80
51815;DHT22;37874;53.158;6.766;2022-08-01T00:20:01;26.60;54.80
51815;DHT22;37874;53.158;6.766;2022-08-01T00:22:30;26.50;54.80
51815;DHT22;37874;53.158;6.766;2022-08-01T00:24:55;26.50;54.80
51815;DHT22;37874;53.158;6.766;2022-08-01T00:27:21;26.50;54.80
51815;DHT22;37874;53.158;6.766;2022-08-01T00:29:46;26.50;55.00
51815;DHT22;37874;53.158;6.766;2022-08-01T00:32:12;26.50;54.90
51815;DHT22;37874;53.158;6.766;2022-08-01T00:34:38;26.50;55.50
51815;DHT22;37874;53.158;6.766;2022-08-01T00:37:03;26.50;55.60
51815;DHT22;37874;53.158;6.766;2022-08-01T00:39:29;26.60;55.80
51815;DHT22;37874;53.158;6.766;2022-08-01T00:41:55;26.60;55.60
51815;DHT22;37874;53.158;6.766;2022-08-01T00:44:20;26.60;55.50
51815;DHT22;37874;53.158;6.766;2022-08-01T00:46:46;26.60;55.30
51815;DHT22;37874;53.158;6.766;2022-08-01T00:49:12;26.60;55.20
51815;DHT22;37874;53.158;6.766;2022-08-01T00:51:38;26.60;55.10
51815;DHT22;37874;53.158;6.766;2022-08-01T00:54:04;26.60;55.10
51815;DHT22;37874;53.158;6.766;2022-08-01T00:56:30;26.60;55.30
51815;DHT22;37874;53.158;6.766;2022-08-01T00:58:56;26.60;55.10
51815;DHT22;37874;53.158;6.766;2022-08-01T01:01:22;26.50;55.30
51815;DHT22;37874;53.158;6.766;2022-08-01T01:03:49;26.60;55.30
51815;DHT22;37874;53.158;6.766;2022-08-01T01:06:30;26.60;55.00
51815;DHT22;37874;53.158;6.766;2022-08-01T01:09:11;26.60;55.60
51815;DHT22;37874;53.158;6.766;2022-08-01T01:23:28;26.50;54.90
51815;DHT22;37874;53.158;6.766;2022-08-01T01:31:08;26.50;54.80
51815;DHT22;37874;53.158;6.766;2022-08-01T01:33:37;26.50;54.80
51815;DHT22;37874;53.158;6.766;2022-08-01T01:36:07;26.50;54.80
51815;DHT22;37874;53.158;6.766;2022-08-01T01:38:37;26.50;54.70
51815;DHT22;37874;53.158;6.766;2022-08-01T01:41:08;26.40;54.70
51815;DHT22;37874;53.158;6.766;2022-08-01T01:43:36;26.40;54.50
51815;DHT22;37874;53.158;6.766;2022-08-01T01:46:04;26.40;54.30
51815;DHT22;37874;53.158;6.766;2022-08-01T01:48:31;26.40;54.30
51815;DHT22;37874;53.158;6.766;2022-08-01T01:50:59;26.30;54.10
51815;DHT22;37874;53.158;6.766;2022-08-01T01:53:27;26.30;54.20
51815;DHT22;37874;53.158;6.766;2022-08-01T01:55:54;26.20;54.20
51815;DHT22;37874;53.158;6.766;2022-08-01T01:58:22;26.20;54.20
51815;DHT22;37874;53.158;6.766;2022-08-01T02:00:50;26.20;54.10
51815;DHT22;37874;53.158;6.766;2022-08-01T02:03:18;26.20;54.10
51815;DHT22;37874;53.158;6.766;2022-08-01T02:05:45;26.20;54.10
51815;DHT22;37874;53.158;6.766;2022-08-01T02:08:15;26.20;54.00
51815;DHT22;37874;53.158;6.766;2022-08-01T02:10:42;26.20;54.00
51815;DHT22;37874;53.158;6.766;2022-08-01T02:13:32;26.20;54.00
51815;DHT22;37874;53.158;6.766;2022-08-01T02:15:58;26.20;53.70
51815;DHT22;37874;53.158;6.766;2022-08-01T02:18:24;26.20;53.80
51815;DHT22;37874;53.158;6.766;2022-08-01T02:20:50;26.20;53.60
51815;DHT22;37874;53.158;6.766;2022-08-01T02:23:18;26.20;53.50
51815;DHT22;37874;53.158;6.766;2022-08-01T02:25:47;26.20;53.40
51815;DHT22;37874;53.158;6.766;2022-08-01T02:28:32;26.10;53.30
51815;DHT22;37874;53.158;6.766;2022-08-01T02:31:04;26.10;53.30
51815;DHT22;37874;53.158;6.766;2022-08-01T02:33:39;26.10;53.30
51815;DHT22;37874;53.158;6.766;2022-08-01T02:36:06;26.40;53.50
51815;DHT22;37874;53.158;6.766;2022-08-01T02:38:35;26.10;53.30
51815;DHT22;37874;53.158;6.766;2022-08-01T02:41:06;26.10;53.20
51815;DHT22;37874;53.158;6.766;2022-08-01T02:43:34;26.10;53.20
51815;DHT22;37874;53.158;6.766;2022-08-01T02:46:02;26.10;53.10
51815;DHT22;37874;53.158;6.766;2022-08-01T02:48:31;26.10;53.20
51815;DHT22;37874;53.158;6.766;2022-08-01T02:51:00;26.10;53.00
51815;DHT22;37874;53.158;6.766;2022-08-01T02:53:27;26.10;52.90
51815;DHT22;37874;53.158;6.766;2022-08-01T02:55:57;26.10;52.90
51815;DHT22;37874;53.158;6.766;2022-08-01T02:58:24;26.00;53.40
51815;DHT22;37874;53.158;6.766;2022-08-01T03:00:51;26.00;52.90
51815;DHT22;37874;53.158;6.766;2022-08-01T03:03:17;26.00;52.80
51815;DHT22;37874;53.158;6.766;2022-08-01T03:05:44;26.00;52.90
51815;DHT22;37874;53.158;6.766;2022-08-01T03:08:12;26.00;53.10
51815;DHT22;37874;53.158;6.766;2022-08-01T03:10:42;25.90;53.10
51815;DHT22;37874;53.158;6.766;2022-08-01T03:13:11;25.90;53.20
51815;DHT22;37874;53.158;6.766;2022-08-01T03:15:39;25.90;53.20
51815;DHT22;37874;53.158;6.766;2022-08-01T03:18:07;25.90;53.40
51815;DHT22;37874;53.158;6.766;2022-08-01T03:20:33;25.90;53.50
51815;DHT22;37874;53.158;6.766;2022-08-01T03:23:09;25.80;53.60
51815;DHT22;37874;53.158;6.766;2022-08-01T03:25:38;25.90;53.60
51815;DHT22;37874;53.158;6.766;2022-08-01T03:28:06;25.90;53.70
51815;DHT22;37874;53.158;6.766;2022-08-01T03:30:32;25.90;53.60
51815;DHT22;37874;53.158;6.766;2022-08-01T03:32:59;25.90;53.60
51815;DHT22;37874;53.158;6.766;2022-08-01T03:35:45;25.90;53.60
51815;DHT22;37874;53.158;6.766;2022-08-01T03:38:13;25.70;53.40
51815;DHT22;37874;53.158;6.766;2022-08-01T03:40:55;25.90;53.40
51815;DHT22;37874;53.158;6.766;2022-08-01T03:43:38;25.90;53.30
51815;DHT22;37874;53.158;6.766;2022-08-01T03:46:11;25.80;53.20
51815;DHT22;37874;53.158;6.766;2022-08-01T03:48:44;25.80;53.20
51815;DHT22;37874;53.158;6.766;2022-08-01T03:51:12;25.70;53.20
51815;DHT22;37874;53.158;6.766;2022-08-01T03:53:41;25.70;53.20
51815;DHT22;37874;53.158;6.766;2022-08-01T03:56:08;25.70;53.20
51815;DHT22;37874;53.158;6.766;2022-08-01T03:58:38;25.70;53.20
51815;DHT22;37874;53.158;6.766;2022-08-01T04:01:06;25.70;53.10
51815;DHT22;37874;53.158;6.766;2022-08-01T04:03:32;25.60;53.10
51815;DHT22;37874;53.158;6.766;2022-08-01T04:05:58;25.60;53.10
51815;DHT22;37874;53.158;6.766;2022-08-01T04:08:37;25.60;52.90
51815;DHT22;37874;53.158;6.766;2022-08-01T04:11:03;25.60;52.90
51815;DHT22;37874;53.158;6.766;2022-08-01T04:13:29;25.60;52.80
51815;DHT22;37874;53.158;6.766;2022-08-01T04:15:55;25.60;52.80
51815;DHT22;37874;53.158;6.766;2022-08-01T04:18:20;25.60;52.80
51815;DHT22;37874;53.158;6.766;2022-08-01T04:20:46;25.60;52.80
51815;DHT22;37874;53.158;6.766;2022-08-01T04:23:15;25.60;52.90
51815;DHT22;37874;53.158;6.766;2022-08-01T04:25:43;25.60;52.80
51815;DHT22;37874;53.158;6.766;2022-08-01T04:28:11;25.60;52.90
51815;DHT22;37874;53.158;6.766;2022-08-01T04:30:45;25.50;52.40
51815;DHT22;37874;53.158;6.766;2022-08-01T04:33:14;25.50;52.30
51815;DHT22;37874;53.158;6.766;2022-08-01T04:35:43;25.50;52.20
51815;DHT22;37874;53.158;6.766;2022-08-01T04:38:12;25.50;52.00
51815;DHT22;37874;53.158;6.766;2022-08-01T04:40:40;25.50;51.90
51815;DHT22;37874;53.158;6.766;2022-08-01T04:43:07;25.50;51.60
51815;DHT22;37874;53.158;6.766;2022-08-01T04:45:33;25.50;51.60
51815;DHT22;37874;53.158;6.766;2022-08-01T04:47:59;25.40;51.40
51815;DHT22;37874;53.158;6.766;2022-08-01T04:50:25;25.40;51.40
51815;DHT22;37874;53.158;6.766;2022-08-01T04:52:51;25.40;51.40
51815;DHT22;37874;53.158;6.766;2022-08-01T04:55:17;25.40;51.40
51815;DHT22;37874;53.158;6.766;2022-08-01T04:57:44;25.40;51.10
51815;DHT22;37874;53.158;6.766;2022-08-01T05:00:10;25.40;50.80
51815;DHT22;37874;53.158;6.766;2022-08-01T05:02:36;25.70;50.90
51815;DHT22;37874;53.158;6.766;2022-08-01T05:05:02;25.30;51.30
51815;DHT22;37874;53.158;6.766;2022-08-01T05:07:28;25.30;50.50
51815;DHT22;37874;53.158;6.766;2022-08-01T05:09:54;25.30;50.30
51815;DHT22;37874;53.158;6.766;2022-08-01T05:12:19;25.30;50.40
51815;DHT22;37874;53.158;6.766;2022-08-01T05:14:46;25.30;50.10
51815;DHT22;37874;53.158;6.766;2022-08-01T05:17:11;25.20;50.00
51815;DHT22;37874;53.158;6.766;2022-08-01T05:19:38;25.20;50.10
51815;DHT22;37874;53.158;6.766;2022-08-01T05:22:06;25.20;50.60
51815;DHT22;37874;53.158;6.766;2022-08-01T05:24:33;25.20;50.30
51815;DHT22;37874;53.158;6.766;2022-08-01T05:26:59;25.20;50.10
51815;DHT22;37874;53.158;6.766;2022-08-01T05:29:25;25.20;50.00
51815;DHT22;37874;53.158;6.766;2022-08-01T05:31:52;25.20;49.90
51815;DHT22;37874;53.158;6.766;2022-08-01T05:34:18;25.20;49.80
51815;DHT22;37874;53.158;6.766;2022-08-01T05:36:44;25.20;49.80
51815;DHT22;37874;53.158;6.766;2022-08-01T05:39:10;25.20;49.60
51815;DHT22;37874;53.158;6.766;2022-08-01T05:41:36;25.20;49.70
51815;DHT22;37874;53.158;6.766;2022-08-01T05:44:03;25.20;49.70
51815;DHT22;37874;53.158;6.766;2022-08-01T05:46:28;25.20;49.60
51815;DHT22;37874;53.158;6.766;2022-08-01T05:48:59;25.20;49.60
51815;DHT22;37874;53.158;6.766;2022-08-01T05:51:25;25.20;49.60
51815;DHT22;37874;53.158;6.766;2022-08-01T05:53:51;25.20;49.70
51815;DHT22;37874;53.158;6.766;2022-08-01T05:56:17;25.20;49.80
51815;DHT22;37874;53.158;6.766;2022-08-01T05:58:43;25.20;50.00
51815;DHT22;37874;53.158;6.766;2022-08-01T06:01:08;25.20;49.60
51815;DHT22;37874;53.158;6.766;2022-08-01T06:03:34;25.20;49.50
51815;DHT22;37874;53.158;6.766;2022-08-01T06:06:00;25.20;49.70
51815;DHT22;37874;53.158;6.766;2022-08-01T06:08:26;25.20;49.50
51815;DHT22;37874;53.158;6.766;2022-08-01T06:10:52;25.20;49.70
51815;DHT22;37874;53.158;6.766;2022-08-01T06:13:17;25.20;49.70
51815;DHT22;37874;53.158;6.766;2022-08-01T06:15:45;25.20;49.40
51815;DHT22;37874;53.158;6.766;2022-08-01T06:18:11;25.20;49.10
51815;DHT22;37874;53.158;6.766;2022-08-01T06:20:36;25.20;49.70
51815;DHT22;37874;53.158;6.766;2022-08-01T06:23:02;25.20;49.50
51815;DHT22;37874;53.158;6.766;2022-08-01T06:25:28;25.20;49.70
51815;DHT22;37874;53.158;6.766;2022-08-01T06:27:54;25.20;49.90
51815;DHT22;37874;53.158;6.766;2022-08-01T06:30:19;25.20;49.80
51815;DHT22;37874;53.158;6.766;2022-08-01T06:32:45;25.30;50.10
51815;DHT22;37874;53.158;6.766;2022-08-01T06:35:11;25.30;50.20
51815;DHT22;37874;53.158;6.766;2022-08-01T06:37:37;25.30;50.20
51815;DHT22;37874;53.158;6.766;2022-08-01T06:40:03;25.30;50.00
51815;DHT22;37874;53.158;6.766;2022-08-01T06:42:29;25.20;49.90
51815;DHT22;37874;53.158;6.766;2022-08-01T06:44:57;25.30;49.70
51815;DHT22;37874;53.158;6.766;2022-08-01T06:47:23;25.30;49.60
51815;DHT22;37874;53.158;6.766;2022-08-01T06:49:48;25.30;49.80
51815;DHT22;37874;53.158;6.766;2022-08-01T06:52:14;25.30;49.90
51815;DHT22;37874;53.158;6.766;2022-08-01T06:54:39;25.40;49.50
51815;DHT22;37874;53.158;6.766;2022-08-01T06:57:05;25.30;49.70
51815;DHT22;37874;53.158;6.766;2022-08-01T06:59:31;25.30;49.60
51815;DHT22;37874;53.158;6.766;2022-08-01T07:01:57;25.30;50.20
51815;DHT22;37874;53.158;6.766;2022-08-01T07:04:22;25.30;49.60
51815;DHT22;37874;53.158;6.766;2022-08-01T07:06:48;25.30;49.60
51815;DHT22;37874;53.158;6.766;2022-08-01T07:09:13;25.30;49.60
51815;DHT22;37874;53.158;6.766;2022-08-01T07:11:39;25.30;49.70
51815;DHT22;37874;53.158;6.766;2022-08-01T07:14:05;25.30;48.80
51815;DHT22;37874;53.158;6.766;2022-08-01T07:16:30;25.30;48.50
51815;DHT22;37874;53.158;6.766;2022-08-01T07:18:56;25.30;48.40
51815;DHT22;37874;53.158;6.766;2022-08-01T07:21:21;25.20;47.90
51815;DHT22;37874;53.158;6.766;2022-08-01T07:23:47;25.20;47.70
51815;DHT22;37874;53.158;6.766;2022-08-01T07:26:13;25.20;47.80
51815;DHT22;37874;53.158;6.766;2022-08-01T07:28:38;25.20;47.70
51815;DHT22;37874;53.158;6.766;2022-08-01T07:31:04;25.20;48.00
51815;DHT22;37874;53.158;6.766;2022-08-01T07:33:30;25.30;47.70
51815;DHT22;37874;53.158;6.766;2022-08-01T07:35:55;25.30;47.20
51815;DHT22;37874;53.158;6.766;2022-08-01T07:38:21;25.30;46.80
51815;DHT22;37874;53.158;6.766;2022-08-01T07:40:48;25.30;46.80
51815;DHT22;37874;53.158;6.766;2022-08-01T07:43:14;25.30;46.70
51815;DHT22;37874;53.158;6.766;2022-08-01T07:45:41;25.30;46.80
51815;DHT22;37874;53.158;6.766;2022-08-01T07:48:07;25.40;46.80
51815;DHT22;37874;53.158;6.766;2022-08-01T07:50:33;25.40;46.40
51815;DHT22;37874;53.158;6.766;2022-08-01T07:52:59;25.50;46.70
51815;DHT22;37874;53.158;6.766;2022-08-01T07:55:25;25.40;46.10
51815;DHT22;37874;53.158;6.766;2022-08-01T07:57:51;25.00;45.50
51815;DHT22;37874;53.158;6.766;2022-08-01T08:00:17;25.50;46.80
51815;DHT22;37874;53.158;6.766;2022-08-01T08:02:43;25.50;45.90
51815;DHT22;37874;53.158;6.766;2022-08-01T08:05:10;25.50;45.30
51815;DHT22;37874;53.158;6.766;2022-08-01T08:07:36;25.60;45.90
51815;DHT22;37874;53.158;6.766;2022-08-01T08:10:03;25.60;46.00
51815;DHT22;37874;53.158;6.766;2022-08-01T08:12:29;25.60;45.70
51815;DHT22;37874;53.158;6.766;2022-08-01T08:14:54;25.60;45.70
51815;DHT22;37874;53.158;6.766;2022-08-01T08:17:20;25.60;46.10
51815;DHT22;37874;53.158;6.766;2022-08-01T08:19:46;25.70;46.10
51815;DHT22;37874;53.158;6.766;2022-08-01T08:22:12;25.70;45.50
51815;DHT22;37874;53.158;6.766;2022-08-01T08:24:38;25.70;45.30
51815;DHT22;37874;53.158;6.766;2022-08-01T08:27:03;25.70;45.20
51815;DHT22;37874;53.158;6.766;2022-08-01T08:29:30;25.70;44.60
51815;DHT22;37874;53.158;6.766;2022-08-01T08:31:59;25.70;45.00
51815;DHT22;37874;53.158;6.766;2022-08-01T08:34:26;25.80;44.60
51815;DHT22;37874;53.158;6.766;2022-08-01T08:36:53;25.70;44.50
51815;DHT22;37874;53.158;6.766;2022-08-01T08:39:20;25.70;44.40
51815;DHT22;37874;53.158;6.766;2022-08-01T08:41:46;25.70;43.80
51815;DHT22;37874;53.158;6.766;2022-08-01T08:44:12;25.80;43.60
51815;DHT22;37874;53.158;6.766;2022-08-01T08:46:41;25.80;43.90
51815;DHT22;37874;53.158;6.766;2022-08-01T08:49:08;25.80;43.80
51815;DHT22;37874;53.158;6.766;2022-08-01T08:51:34;25.90;43.70
51815;DHT22;37874;53.158;6.766;2022-08-01T08:54:04;25.90;43.60
51815;DHT22;37874;53.158;6.766;2022-08-01T08:56:31;25.90;43.60
51815;DHT22;37874;53.158;6.766;2022-08-01T08:59:00;25.90;44.10
51815;DHT22;37874;53.158;6.766;2022-08-01T09:01:26;25.90;43.80
51815;DHT22;37874;53.158;6.766;2022-08-01T09:03:52;26.00;43.60
51815;DHT22;37874;53.158;6.766;2022-08-01T09:06:18;26.00;42.80
51815;DHT22;37874;53.158;6.766;2022-08-01T09:08:44;25.90;43.00
51815;DHT22;37874;53.158;6.766;2022-08-01T09:11:09;25.90;42.50
51815;DHT22;37874;53.158;6.766;2022-08-01T09:13:35;25.90;43.20
51815;DHT22;37874;53.158;6.766;2022-08-01T09:16:01;25.90;43.70
51815;DHT22;37874;53.158;6.766;2022-08-01T09:18:35;26.00;43.60
51815;DHT22;37874;53.158;6.766;2022-08-01T09:21:20;26.00;43.40
51815;DHT22;37874;53.158;6.766;2022-08-01T09:23:54;26.00;42.60
51815;DHT22;37874;53.158;6.766;2022-08-01T09:26:28;26.10;41.90
51815;DHT22;37874;53.158;6.766;2022-08-01T09:28:54;26.10;42.20
51815;DHT22;37874;53.158;6.766;2022-08-01T09:31:20;26.10;42.70
51815;DHT22;37874;53.158;6.766;2022-08-01T09:33:51;26.10;42.70
51815;DHT22;37874;53.158;6.766;2022-08-01T09:36:19;26.10;42.20
51815;DHT22;37874;53.158;6.766;2022-08-01T09:38:46;26.10;42.20
51815;DHT22;37874;53.158;6.766;2022-08-01T09:41:11;26.00;41.90
51815;DHT22;37874;53.158;6.766;2022-08-01T09:43:37;26.00;41.90
51815;DHT22;37874;53.158;6.766;2022-08-01T09:46:11;26.00;42.00
51815;DHT22;37874;53.158;6.766;2022-08-01T09:48:37;26.00;42.20
51815;DHT22;37874;53.158;6.766;2022-08-01T09:51:05;26.00;42.20
51815;DHT22;37874;53.158;6.766;2022-08-01T09:53:48;26.10;42.40
51815;DHT22;37874;53.158;6.766;2022-08-01T09:56:14;26.10;41.80
51815;DHT22;37874;53.158;6.766;2022-08-01T09:58:59;26.10;41.90
51815;DHT22;37874;53.158;6.766;2022-08-01T10:01:25;26.10;42.00
51815;DHT22;37874;53.158;6.766;2022-08-01T10:04:10;26.20;42.00
51815;DHT22;37874;53.158;6.766;2022-08-01T10:06:36;26.20;41.50
51815;DHT22;37874;53.158;6.766;2022-08-01T10:09:02;26.20;41.00
51815;DHT22;37874;53.158;6.766;2022-08-01T10:11:28;26.20;41.30
51815;DHT22;37874;53.158;6.766;2022-08-01T10:13:56;26.20;41.20
51815;DHT22;37874;53.158;6.766;2022-08-01T10:16:24;26.20;41.40
51815;DHT22;37874;53.158;6.766;2022-08-01T10:18:52;26.30;41.60
51815;DHT22;37874;53.158;6.766;2022-08-01T10:21:20;26.30;41.80
51815;DHT22;37874;53.158;6.766;2022-08-01T10:23:46;26.30;40.70
51815;DHT22;37874;53.158;6.766;2022-08-01T10:26:12;26.50;41.90
51815;DHT22;37874;53.158;6.766;2022-08-01T10:28:40;26.50;41.30
51815;DHT22;37874;53.158;6.766;2022-08-01T10:31:10;26.50;41.20
51815;DHT22;37874;53.158;6.766;2022-08-01T10:33:36;26.40;41.40
51815;DHT22;37874;53.158;6.766;2022-08-01T10:36:05;26.50;41.20
51815;DHT22;37874;53.158;6.766;2022-08-01T10:38:31;26.50;40.90
51815;DHT22;37874;53.158;6.766;2022-08-01T10:40:59;26.40;40.40
51815;DHT22;37874;53.158;6.766;2022-08-01T10:43:27;26.50;40.50
51815;DHT22;37874;53.158;6.766;2022-08-01T10:45:53;26.50;40.50
51815;DHT22;37874;53.158;6.766;2022-08-01T10:48:39;26.50;40.50
51815;DHT22;37874;53.158;6.766;2022-08-01T10:51:08;26.50;40.50
51815;DHT22;37874;53.158;6.766;2022-08-01T10:53:34;26.50;40.00
51815;DHT22;37874;53.158;6.766;2022-08-01T10:56:02;26.50;40.50
51815;DHT22;37874;53.158;6.766;2022-08-01T10:58:36;26.50;40.50
51815;DHT22;37874;53.158;6.766;2022-08-01T11:03:46;26.60;40.10
51815;DHT22;37874;53.158;6.766;2022-08-01T11:06:48;26.60;40.00
51815;DHT22;37874;53.158;6.766;2022-08-01T11:11:59;26.60;39.90
51815;DHT22;37874;53.158;6.766;2022-08-01T11:14:27;26.70;39.10
51815;DHT22;37874;53.158;6.766;2022-08-01T11:16:53;26.70;38.70
51815;DHT22;37874;53.158;6.766;2022-08-01T11:19:18;26.70;38.90
51815;DHT22;37874;53.158;6.766;2022-08-01T11:32:51;26.70;38.80
51815;DHT22;37874;53.158;6.766;2022-08-01T11:35:18;26.70;38.70
51815;DHT22;37874;53.158;6.766;2022-08-01T11:37:46;26.60;38.60
51815;DHT22;37874;53.158;6.766;2022-08-01T11:40:24;26.60;38.60
51815;DHT22;37874;53.158;6.766;2022-08-01T11:43:33;26.70;39.10
51815;DHT22;37874;53.158;6.766;2022-08-01T11:45:55;26.80;38.40
51815;DHT22;37874;53.158;6.766;2022-08-01T11:48:25;26.80;38.50
51815;DHT22;37874;53.158;6.766;2022-08-01T11:50:53;26.80;37.90
51815;DHT22;37874;53.158;6.766;2022-08-01T11:53:19;26.80;37.80
51815;DHT22;37874;53.158;6.766;2022-08-01T11:55:53;26.80;37.40
51815;DHT22;37874;53.158;6.766;2022-08-01T11:58:26;26.80;37.60
51815;DHT22;37874;53.158;6.766;2022-08-01T12:00:53;26.70;37.50
51815;DHT22;37874;53.158;6.766;2022-08-01T12:03:24;26.70;37.20
51815;DHT22;37874;53.158;6.766;2022-08-01T12:05:51;26.70;37.10
51815;DHT22;37874;53.158;6.766;2022-08-01T12:08:27;26.70;36.80
51815;DHT22;37874;53.158;6.766;2022-08-01T12:10:53;26.60;36.70
51815;DHT22;37874;53.158;6.766;2022-08-01T12:13:19;26.70;36.40
51815;DHT22;37874;53.158;6.766;2022-08-01T12:15:45;26.70;35.80
51815;DHT22;37874;53.158;6.766;2022-08-01T12:18:11;26.70;36.00
51815;DHT22;37874;53.158;6.766;2022-08-01T12:20:39;26.70;36.90
51815;DHT22;37874;53.158;6.766;2022-08-01T12:23:11;26.70;36.50
51815;DHT22;37874;53.158;6.766;2022-08-01T12:25:38;26.70;37.00
51815;DHT22;37874;53.158;6.766;2022-08-01T12:28:10;26.70;36.20
51815;DHT22;37874;53.158;6.766;2022-08-01T12:30:38;26.70;36.30
51815;DHT22;37874;53.158;6.766;2022-08-01T12:33:06;26.70;36.70
51815;DHT22;37874;53.158;6.766;2022-08-01T12:35:33;26.80;35.90
51815;DHT22;37874;53.158;6.766;2022-08-01T12:38:01;26.80;35.90
51815;DHT22;37874;53.158;6.766;2022-08-01T12:40:36;26.80;35.60
51815;DHT22;37874;53.158;6.766;2022-08-01T12:43:06;26.80;36.30
51815;DHT22;37874;53.158;6.766;2022-08-01T12:45:41;26.80;35.80
51815;DHT22;37874;53.158;6.766;2022-08-01T12:48:11;26.80;35.90
51815;DHT22;37874;53.158;6.766;2022-08-01T12:50:39;26.70;36.00
51815;DHT22;37874;53.158;6.766;2022-08-01T12:53:05;26.70;35.70
51815;DHT22;37874;53.158;6.766;2022-08-01T12:55:31;26.70;35.90
51815;DHT22;37874;53.158;6.766;2022-08-01T12:58:23;26.70;35.90
51815;DHT22;37874;53.158;6.766;2022-08-01T13:01:01;26.70;35.00
51815;DHT22;37874;53.158;6.766;2022-08-01T13:03:27;26.60;34.80
51815;DHT22;37874;53.158;6.766;2022-08-01T13:05:54;26.60;35.50
51815;DHT22;37874;53.158;6.766;2022-08-01T13:08:21;26.70;34.80
51815;DHT22;37874;53.158;6.766;2022-08-01T13:10:49;26.70;34.80
51815;DHT22;37874;53.158;6.766;2022-08-01T13:13:17;26.80;35.00
51815;DHT22;37874;53.158;6.766;2022-08-01T13:15:43;26.80;35.00
51815;DHT22;37874;53.158;6.766;2022-08-01T13:18:47;26.80;34.90
51815;DHT22;37874;53.158;6.766;2022-08-01T13:21:20;26.90;35.00
51815;DHT22;37874;53.158;6.766;2022-08-01T13:24:07;26.90;34.90
51815;DHT22;37874;53.158;6.766;2022-08-01T13:26:48;26.90;35.60
51815;DHT22;37874;53.158;6.766;2022-08-01T13:29:34;26.90;34.50
51815;DHT22;37874;53.158;6.766;2022-08-01T13:32:20;26.90;33.90
51815;DHT22;37874;53.158;6.766;2022-08-01T13:34:47;26.90;34.20
51815;DHT22;37874;53.158;6.766;2022-08-01T13:37:13;26.90;34.20
51815;DHT22;37874;53.158;6.766;2022-08-01T13:39:38;27.00;34.60
51815;DHT22;37874;53.158;6.766;2022-08-01T13:42:11;27.00;33.90
51815;DHT22;37874;53.158;6.766;2022-08-01T13:44:38;27.00;33.40
51815;DHT22;37874;53.158;6.766;2022-08-01T13:47:04;27.00;33.90
51815;DHT22;37874;53.158;6.766;2022-08-01T13:49:30;27.00;33.70
51815;DHT22;37874;53.158;6.766;2022-08-01T13:51:56;27.00;34.50
51815;DHT22;37874;53.158;6.766;2022-08-01T13:54:21;27.00;34.00
51815;DHT22;37874;53.158;6.766;2022-08-01T13:56:49;27.00;33.60
51815;DHT22;37874;53.158;6.766;2022-08-01T13:59:14;27.00;33.80
51815;DHT22;37874;53.158;6.766;2022-08-01T14:01:40;27.10;33.70
51815;DHT22;37874;53.158;6.766;2022-08-01T14:04:06;27.10;33.90
51815;DHT22;37874;53.158;6.766;2022-08-01T14:06:32;27.10;33.90
51815;DHT22;37874;53.158;6.766;2022-08-01T14:08:58;27.20;34.00
51815;DHT22;37874;53.158;6.766;2022-08-01T14:11:23;27.30;34.00
51815;DHT22;37874;53.158;6.766;2022-08-01T14:13:49;27.40;33.60
51815;DHT22;37874;53.158;6.766;2022-08-01T14:16:16;27.30;33.60
51815;DHT22;37874;53.158;6.766;2022-08-01T14:18:42;27.30;33.30
51815;DHT22;37874;53.158;6.766;2022-08-01T14:21:07;27.20;33.40
51815;DHT22;37874;53.158;6.766;2022-08-01T14:23:33;27.10;33.60
51815;DHT22;37874;53.158;6.766;2022-08-01T14:25:58;27.30;34.40
51815;DHT22;37874;53.158;6.766;2022-08-01T14:28:24;27.20;33.90
51815;DHT22;37874;53.158;6.766;2022-08-01T14:30:52;27.20;34.10
51815;DHT22;37874;53.158;6.766;2022-08-01T14:33:21;27.20;33.80
51815;DHT22;37874;53.158;6.766;2022-08-01T14:35:47;27.20;34.00
51815;DHT22;37874;53.158;6.766;2022-08-01T14:38:13;27.30;34.40
51815;DHT22;37874;53.158;6.766;2022-08-01T14:40:38;27.30;33.80
51815;DHT22;37874;53.158;6.766;2022-08-01T14:43:05;27.40;33.60
51815;DHT22;37874;53.158;6.766;2022-08-01T14:45:31;27.40;33.60
51815;DHT22;37874;53.158;6.766;2022-08-01T14:47:58;27.40;33.40
51815;DHT22;37874;53.158;6.766;2022-08-01T14:50:24;27.30;34.30
51815;DHT22;37874;53.158;6.766;2022-08-01T14:52:52;27.40;34.10
51815;DHT22;37874;53.158;6.766;2022-08-01T14:55:18;27.40;34.10
51815;DHT22;37874;53.158;6.766;2022-08-01T14:57:46;27.30;34.30
51815;DHT22;37874;53.158;6.766;2022-08-01T15:00:12;27.40;34.30
51815;DHT22;37874;53.158;6.766;2022-08-01T15:02:39;27.30;34.60
51815;DHT22;37874;53.158;6.766;2022-08-01T15:05:05;27.50;33.90
51815;DHT22;37874;53.158;6.766;2022-08-01T15:07:31;27.50;34.30
51815;DHT22;37874;53.158;6.766;2022-08-01T15:09:57;27.60;34.10
51815;DHT22;37874;53.158;6.766;2022-08-01T15:12:23;27.70;34.10
51815;DHT22;37874;53.158;6.766;2022-08-01T15:14:48;27.70;33.60
51815;DHT22;37874;53.158;6.766;2022-08-01T15:17:16;27.70;33.70
51815;DHT22;37874;53.158;6.766;2022-08-01T15:19:42;27.70;33.60
51815;DHT22;37874;53.158;6.766;2022-08-01T15:22:08;27.70;33.50
51815;DHT22;37874;53.158;6.766;2022-08-01T15:24:33;27.70;33.00
51815;DHT22;37874;53.158;6.766;2022-08-01T15:26:59;27.70;33.60
51815;DHT22;37874;53.158;6.766;2022-08-01T15:29:25;27.70;33.70
51815;DHT22;37874;53.158;6.766;2022-08-01T15:31:50;27.80;34.20
51815;DHT22;37874;53.158;6.766;2022-08-01T15:34:16;27.80;33.40
51815;DHT22;37874;53.158;6.766;2022-08-01T15:36:42;27.80;33.70
51815;DHT22;37874;53.158;6.766;2022-08-01T15:39:09;28.00;34.00
51815;DHT22;37874;53.158;6.766;2022-08-01T15:41:35;28.10;32.70
51815;DHT22;37874;53.158;6.766;2022-08-01T15:44:01;28.10;32.80
51815;DHT22;37874;53.158;6.766;2022-08-01T15:46:26;28.10;32.60
51815;DHT22;37874;53.158;6.766;2022-08-01T15:48:52;28.00;32.80
51815;DHT22;37874;53.158;6.766;2022-08-01T15:51:17;28.00;32.90
51815;DHT22;37874;53.158;6.766;2022-08-01T15:53:43;28.00;32.70
51815;DHT22;37874;53.158;6.766;2022-08-01T15:56:10;28.00;33.30
51815;DHT22;37874;53.158;6.766;2022-08-01T15:58:37;28.00;33.40
51815;DHT22;37874;53.158;6.766;2022-08-01T16:01:02;28.00;33.40
51815;DHT22;37874;53.158;6.766;2022-08-01T16:03:28;27.90;33.50
51815;DHT22;37874;53.158;6.766;2022-08-01T16:05:54;27.90;33.60
51815;DHT22;37874;53.158;6.766;2022-08-01T16:08:20;27.90;33.70